createdAt,value
2019-05-20T00:02:02.465Z,99228.48
2019-05-20T00:04:30.773Z,99220.23
2019-05-20T00:06:59.071Z,99217.16
2019-05-20T00:09:27.368Z,99217.61
2019-05-20T00:11:55.484Z,99216.85
2019-05-20T00:14:23.771Z,99210.45
2019-05-20T00:16:51.883Z,99218.00
2019-05-20T00:19:20.091Z,99215.28
2019-05-20T00:21:48.224Z,99214.84
2019-05-20T00:24:16.299Z,99213.95
2019-05-20T00:26:44.424Z,99213.48
2019-05-20T00:29:12.635Z,99211.66
2019-05-20T00:31:40.805Z,99210.59
2019-05-20T00:34:09.105Z,99199.25
2019-05-20T00:36:37.282Z,99194.45
2019-05-20T00:39:20.039Z,99204.59
2019-05-20T00:41:48.279Z,99203.78
2019-05-20T00:44:16.511Z,99206.69
2019-05-20T00:46:44.705Z,99203.67
2019-05-20T00:49:12.878Z,99210.53
2019-05-20T00:51:41.032Z,99216.52
2019-05-20T00:54:09.297Z,99216.83
2019-05-20T00:56:37.671Z,99214.45
2019-05-20T00:59:06.193Z,99219.62
2019-05-20T01:01:34.448Z,99225.77
2019-05-20T01:04:02.600Z,99227.20
2019-05-20T01:06:30.683Z,99218.55
2019-05-20T01:08:58.870Z,99220.92
2019-05-20T01:11:26.981Z,99220.92
2019-05-20T01:13:55.138Z,99224.14
2019-05-20T01:16:23.286Z,99224.14
2019-05-20T01:18:51.480Z,99223.52
2019-05-20T01:21:19.591Z,99224.98
2019-05-20T01:23:47.717Z,99228.58
2019-05-20T01:26:15.873Z,99224.85
2019-05-20T01:28:44.023Z,99228.44
2019-05-20T01:31:12.179Z,99231.19
2019-05-20T01:33:40.287Z,99222.23
2019-05-20T01:36:08.470Z,99225.53
2019-05-20T01:38:36.611Z,99227.36
2019-05-20T01:41:04.895Z,99222.32
2019-05-20T01:43:33.010Z,99225.59
2019-05-20T01:46:01.783Z,99207.73
2019-05-20T01:48:29.855Z,99207.73
2019-05-20T01:50:58.181Z,99218.33
2019-05-20T01:53:26.338Z,99221.69
2019-05-20T01:55:54.505Z,99209.66
2019-05-20T01:58:22.645Z,99210.89
2019-05-20T02:00:50.832Z,99211.01
2019-05-20T02:03:31.106Z,99211.01
2019-05-20T02:05:48.946Z,99223.28
2019-05-20T02:08:17.136Z,99215.91
2019-05-20T02:10:45.233Z,99213.52
2019-05-20T02:13:13.356Z,99208.92
2019-05-20T02:15:47.268Z,99216.59
2019-05-20T02:18:15.364Z,99210.84
2019-05-20T02:20:43.498Z,99209.70
2019-05-20T02:23:15.599Z,99209.31
2019-05-20T02:26:03.893Z,99213.27
2019-05-20T02:28:32.072Z,99209.03
2019-05-20T02:31:00.183Z,99213.47
2019-05-20T02:33:28.317Z,99217.59
2019-05-20T02:35:56.419Z,99211.86
2019-05-20T02:38:24.498Z,99223.74
2019-05-20T02:40:52.693Z,99218.28
2019-05-20T02:43:20.856Z,99223.09
2019-05-20T02:45:49.045Z,99224.52
2019-05-20T02:48:17.230Z,99239.28
2019-05-20T02:50:45.356Z,99236.48
2019-05-20T02:53:13.440Z,99234.59
2019-05-20T02:55:41.548Z,99243.03
2019-05-20T02:58:09.668Z,99242.34
2019-05-20T03:00:37.778Z,99240.17
2019-05-20T03:03:05.909Z,99239.30
2019-05-20T03:05:33.997Z,99238.56
2019-05-20T03:08:02.358Z,99238.41
2019-05-20T03:10:30.467Z,99243.15
2019-05-20T03:12:58.587Z,99249.08
2019-05-20T03:15:26.737Z,99249.81
2019-05-20T03:17:54.875Z,99246.98
2019-05-20T03:20:23.063Z,99247.16
2019-05-20T03:22:51.173Z,99240.78
2019-05-20T03:25:19.388Z,99242.23
2019-05-20T03:27:47.620Z,99233.22
2019-05-20T03:30:15.943Z,99226.46
2019-05-20T03:32:44.111Z,99221.63
2019-05-20T03:35:12.561Z,99215.80
2019-05-20T03:37:40.761Z,99215.35
2019-05-20T03:40:09.117Z,99224.73
2019-05-20T03:42:37.344Z,99227.99
2019-05-20T03:45:05.811Z,99224.94
2019-05-20T03:47:33.945Z,99231.17
2019-05-20T03:50:02.207Z,99246.06
2019-05-20T03:52:30.403Z,99240.30
2019-05-20T03:54:58.588Z,99245.03
2019-05-20T03:57:26.774Z,98916.34
2019-05-20T03:59:54.965Z,99251.02
2019-05-20T04:02:23.096Z,99242.86
2019-05-20T04:05:01.496Z,99241.27
2019-05-20T04:07:21.159Z,99248.97
2019-05-20T04:09:49.292Z,99246.87
2019-05-20T04:12:17.583Z,99247.63
2019-05-20T04:14:45.764Z,99257.23
2019-05-20T04:17:13.912Z,99256.98
2019-05-20T04:19:42.048Z,99254.16
2019-05-20T04:22:10.175Z,99247.63
2019-05-20T04:24:38.452Z,99245.91
2019-05-20T04:27:06.629Z,99249.69
2019-05-20T04:29:34.802Z,99250.56
2019-05-20T04:32:02.950Z,99250.67
2019-05-20T04:34:31.132Z,99248.51
2019-05-20T04:36:59.300Z,99244.39
2019-05-20T04:39:27.469Z,99245.56
2019-05-20T04:41:55.659Z,99239.97
2019-05-20T04:44:23.873Z,99238.60
2019-05-20T04:46:52.004Z,99241.16
2019-05-20T04:49:20.278Z,99241.98
2019-05-20T04:51:48.471Z,99242.97
2019-05-20T04:54:16.744Z,99244.17
2019-05-20T04:56:44.957Z,99240.38
2019-05-20T04:59:14.938Z,99242.83
2019-05-20T05:01:43.393Z,99251.91
2019-05-20T05:04:11.591Z,99249.41
2019-05-20T05:06:39.926Z,99253.98
2019-05-20T05:09:08.483Z,99266.02
2019-05-20T05:11:36.893Z,99268.86
2019-05-20T05:14:05.037Z,99279.73
2019-05-20T05:16:33.181Z,99281.81
2019-05-20T05:19:01.427Z,99284.42
2019-05-20T05:21:29.621Z,99284.02
2019-05-20T05:23:59.459Z,99280.66
2019-05-20T05:26:27.793Z,99278.53
2019-05-20T05:28:55.953Z,99276.56
2019-05-20T05:31:24.197Z,99278.28
2019-05-20T05:33:54.317Z,99276.79
2019-05-20T05:36:22.086Z,99279.20
2019-05-20T05:38:50.279Z,99281.25
2019-05-20T05:41:18.495Z,99276.64
2019-05-20T05:43:46.666Z,99277.73
2019-05-20T05:46:14.827Z,99276.81
2019-05-20T05:48:43.002Z,99273.03
2019-05-20T05:51:11.212Z,99275.74
2019-05-20T05:53:39.326Z,99278.44
2019-05-20T05:56:07.454Z,99275.70
2019-05-20T05:58:35.624Z,99276.08
2019-05-20T06:01:03.763Z,99276.89
2019-05-20T06:03:31.974Z,99272.67
2019-05-20T06:06:11.208Z,99273.93
2019-05-20T06:08:30.133Z,99277.06
2019-05-20T06:10:58.282Z,99279.19
2019-05-20T06:13:26.486Z,99275.18
2019-05-20T06:15:54.843Z,99285.51
2019-05-20T06:18:22.992Z,99286.72
2019-05-20T06:20:51.204Z,99293.09
2019-05-20T06:23:19.468Z,99288.33
2019-05-20T06:25:47.721Z,99291.39
2019-05-20T06:28:15.898Z,99286.20
2019-05-20T06:30:46.420Z,99296.20
2019-05-20T06:33:14.718Z,99295.31
2019-05-20T06:35:42.984Z,99295.31
2019-05-20T06:38:19.519Z,99291.05
2019-05-20T06:40:47.718Z,99297.10
2019-05-20T06:43:15.920Z,99297.05
2019-05-20T06:45:44.150Z,99304.52
2019-05-20T06:48:12.395Z,99299.70
2019-05-20T06:50:40.524Z,99291.95
2019-05-20T06:53:08.728Z,99292.63
2019-05-20T06:55:36.879Z,99292.61
2019-05-20T06:58:05.030Z,99294.58
2019-05-20T07:00:35.412Z,99284.23
2019-05-20T07:03:03.680Z,99290.97
2019-05-20T07:05:31.815Z,99282.41
2019-05-20T07:08:01.450Z,99288.43
2019-05-20T07:10:29.821Z,98902.24
2019-05-20T07:12:58.272Z,99294.79
2019-05-20T07:15:26.433Z,99296.75
2019-05-20T07:17:54.595Z,99292.37
2019-05-20T07:20:22.753Z,99290.88
2019-05-20T07:22:55.714Z,99284.27
2019-05-20T07:25:21.084Z,99288.50
2019-05-20T07:27:49.198Z,99297.66
2019-05-20T07:30:17.375Z,99292.27
2019-05-20T07:32:45.507Z,99292.61
2019-05-20T07:35:28.956Z,99298.03
2019-05-20T07:37:43.779Z,99297.44
2019-05-20T07:40:13.528Z,99296.52
2019-05-20T07:42:41.709Z,99298.91
2019-05-20T07:45:10.335Z,99299.94
2019-05-20T07:47:39.018Z,99297.63
2019-05-20T07:50:09.026Z,99293.38
2019-05-20T07:52:36.425Z,99290.46
2019-05-20T07:55:05.230Z,99287.00
2019-05-20T07:57:36.372Z,99290.24
2019-05-20T08:00:05.161Z,99292.60
2019-05-20T08:02:33.554Z,99289.39
2019-05-20T08:05:01.835Z,99294.21
2019-05-20T08:07:50.701Z,99299.16
2019-05-20T08:10:00.320Z,99293.59
2019-05-20T08:12:28.603Z,99300.58
2019-05-20T08:14:57.004Z,99290.39
2019-05-20T08:17:25.171Z,99295.72
2019-05-20T08:19:53.358Z,99303.22
2019-05-20T08:22:21.555Z,99300.40
2019-05-20T08:24:49.755Z,99294.98
2019-05-20T08:27:17.941Z,99301.91
2019-05-20T08:29:46.207Z,99297.31
2019-05-20T08:32:14.529Z,99302.47
2019-05-20T08:34:42.718Z,99297.23
2019-05-20T08:37:10.893Z,99301.91
2019-05-20T08:39:39.123Z,99305.66
2019-05-20T08:42:07.334Z,99307.73
2019-05-20T08:44:35.720Z,99305.00
2019-05-20T08:47:04.129Z,99304.52
2019-05-20T08:49:32.464Z,99305.56
2019-05-20T08:52:00.972Z,99304.23
2019-05-20T08:54:29.217Z,99306.36
2019-05-20T08:56:57.509Z,99312.44
2019-05-20T08:59:25.757Z,99305.28
2019-05-20T09:01:53.907Z,99306.45
2019-05-20T09:04:22.182Z,99314.75
2019-05-20T09:06:50.405Z,99315.38
2019-05-20T09:09:18.637Z,99320.32
2019-05-20T09:11:47.862Z,99320.77
2019-05-20T09:14:16.306Z,99305.91
2019-05-20T09:16:44.454Z,99313.67
2019-05-20T09:19:12.629Z,99304.67
2019-05-20T09:21:40.937Z,99312.25
2019-05-20T09:24:09.150Z,99312.61
2019-05-20T09:26:37.697Z,99304.34
2019-05-20T09:29:05.964Z,99307.91
2019-05-20T09:31:34.348Z,99317.33
2019-05-20T09:34:02.602Z,99312.50
2019-05-20T09:36:30.809Z,99320.67
2019-05-20T09:38:59.125Z,99318.93
2019-05-20T09:41:27.373Z,99313.25
2019-05-20T09:43:55.598Z,99312.84
2019-05-20T09:46:23.859Z,99312.66
2019-05-20T09:48:52.089Z,99316.91
2019-05-20T09:51:20.318Z,99310.17
2019-05-20T09:53:48.558Z,99309.69
2019-05-20T09:56:16.834Z,99311.92
2019-05-20T09:58:45.054Z,99308.70
2019-05-20T10:01:13.243Z,99313.20
2019-05-20T10:03:41.323Z,99319.65
2019-05-20T10:06:09.676Z,99318.01
2019-05-20T10:08:44.447Z,99320.24
2019-05-20T10:11:07.801Z,99319.46
2019-05-20T10:13:36.054Z,99311.88
2019-05-20T10:16:04.327Z,99308.92
2019-05-20T10:18:37.203Z,99311.83
2019-05-20T10:21:01.331Z,99320.63
2019-05-20T10:23:29.519Z,99316.77
2019-05-20T10:25:57.639Z,99318.27
2019-05-20T10:28:25.859Z,99319.58
2019-05-20T10:30:54.029Z,99319.09
2019-05-20T10:33:22.276Z,99312.86
2019-05-20T10:35:50.380Z,99312.74
2019-05-20T10:38:18.553Z,99313.28
2019-05-20T10:40:46.765Z,99314.25
2019-05-20T10:43:14.965Z,99313.25
2019-05-20T10:45:43.154Z,99317.27
2019-05-20T10:48:11.250Z,99317.83
2019-05-20T10:50:39.420Z,99319.20
2019-05-20T10:53:07.619Z,99314.45
2019-05-20T10:55:35.836Z,99315.94
2019-05-20T10:58:04.008Z,99304.33
2019-05-20T11:00:32.242Z,99302.91
2019-05-20T11:03:00.360Z,99310.34
2019-05-20T11:05:28.568Z,99313.47
2019-05-20T11:07:56.971Z,99313.33
2019-05-20T11:10:25.352Z,99315.00
2019-05-20T11:12:53.521Z,99308.84
2019-05-20T11:15:21.856Z,99304.77
2019-05-20T11:17:50.047Z,99305.27
2019-05-20T11:20:18.636Z,99317.85
2019-05-20T11:22:48.513Z,99301.91
2019-05-20T11:25:17.298Z,99301.42
2019-05-20T11:27:45.518Z,99306.44
2019-05-20T11:30:14.202Z,99301.25
2019-05-20T11:32:42.427Z,99308.92
2019-05-20T11:35:11.222Z,99300.36
2019-05-20T11:37:39.439Z,99307.83
2019-05-20T11:40:09.055Z,99306.38
2019-05-20T11:42:37.675Z,99305.73
2019-05-20T11:45:06.768Z,99299.45
2019-05-20T11:47:35.028Z,99300.03
2019-05-20T11:50:03.465Z,99303.39
2019-05-20T11:52:31.601Z,99307.59
2019-05-20T11:54:59.751Z,99306.77
2019-05-20T11:57:27.962Z,99303.20
2019-05-20T11:59:56.219Z,99306.55
2019-05-20T12:02:24.418Z,99306.23
2019-05-20T12:04:52.658Z,99299.84
2019-05-20T12:07:21.003Z,99300.95
2019-05-20T12:09:50.268Z,99289.59
2019-05-20T12:12:17.720Z,99292.28
2019-05-20T12:14:45.965Z,99292.73
2019-05-20T12:17:14.351Z,99283.94
2019-05-20T12:19:42.581Z,99287.23
2019-05-20T12:22:10.876Z,99276.04
2019-05-20T12:24:39.082Z,99282.96
2019-05-20T12:27:07.283Z,99271.23
2019-05-20T12:29:35.439Z,99271.44
2019-05-20T12:32:03.854Z,99270.37
2019-05-20T12:34:31.952Z,99266.56
2019-05-20T12:37:00.217Z,99259.18
2019-05-20T12:39:28.497Z,99262.30
2019-05-20T12:41:56.725Z,99251.64
2019-05-20T12:44:24.929Z,99249.23
2019-05-20T12:46:53.298Z,99238.14
2019-05-20T12:49:21.602Z,99242.21
2019-05-20T12:51:49.767Z,99240.45
2019-05-20T12:54:17.876Z,99245.30
2019-05-20T12:56:46.024Z,99249.76
2019-05-20T12:59:14.287Z,99250.44
2019-05-20T13:01:42.410Z,99248.20
2019-05-20T13:04:10.840Z,99253.20
2019-05-20T13:06:38.987Z,99246.11
2019-05-20T13:09:07.871Z,99249.88
2019-05-20T13:11:36.223Z,99251.32
2019-05-20T13:14:04.481Z,99243.78
2019-05-20T13:16:32.626Z,99245.83
2019-05-20T13:19:00.778Z,99249.52
2019-05-20T13:21:29.033Z,99245.84
2019-05-20T13:23:57.957Z,99246.80
2019-05-20T13:26:26.298Z,99250.83
2019-05-20T13:28:58.938Z,99243.85
2019-05-20T13:31:24.411Z,99233.50
2019-05-20T13:33:52.546Z,99236.67
2019-05-20T13:36:20.726Z,99234.30
2019-05-20T13:38:48.986Z,99235.41
2019-05-20T13:41:17.188Z,99243.47
2019-05-20T13:43:45.315Z,99232.75
2019-05-20T13:46:13.533Z,99229.59
2019-05-20T13:48:41.676Z,99223.40
2019-05-20T13:51:09.956Z,99222.87
2019-05-20T13:53:38.278Z,99225.53
2019-05-20T13:56:06.516Z,99217.10
2019-05-20T13:58:34.798Z,99213.12
2019-05-20T14:01:03.101Z,99216.72
2019-05-20T14:03:31.348Z,99212.30
2019-05-20T14:05:59.523Z,99207.73
2019-05-20T14:08:27.729Z,99199.70
2019-05-20T14:11:04.271Z,99201.21
2019-05-20T14:13:25.773Z,99208.92
2019-05-20T14:15:53.956Z,99201.41
2019-05-20T14:18:22.158Z,99201.37
2019-05-20T14:20:50.328Z,99197.63
2019-05-20T14:23:18.556Z,99187.66
2019-05-20T14:25:46.902Z,99190.25
2019-05-20T14:28:15.058Z,99183.90
2019-05-20T14:30:43.226Z,99183.67
2019-05-20T14:33:11.432Z,99183.22
2019-05-20T14:35:39.594Z,99180.05
2019-05-20T14:38:07.707Z,99183.92
2019-05-20T14:40:36.029Z,99180.00
2019-05-20T14:43:04.211Z,99181.20
2019-05-20T14:45:32.442Z,99177.61
2019-05-20T14:48:00.921Z,99175.27
2019-05-20T14:50:29.068Z,99175.23
2019-05-20T14:52:57.287Z,99160.99
2019-05-20T14:55:25.534Z,99158.58
2019-05-20T14:57:53.868Z,99158.36
2019-05-20T15:00:22.135Z,99160.91
2019-05-20T15:02:50.357Z,99164.84
2019-05-20T15:05:18.542Z,99178.02
2019-05-20T15:07:47.209Z,99181.36
2019-05-20T15:10:17.231Z,99189.64
2019-05-20T15:12:45.429Z,99194.91
2019-05-20T15:15:14.349Z,99223.98
2019-05-20T15:17:42.529Z,99297.81
2019-05-20T15:20:11.162Z,99280.73
2019-05-20T15:22:39.394Z,99282.97
2019-05-20T15:25:07.895Z,99263.07
2019-05-20T15:27:36.105Z,99249.67
2019-05-20T15:30:04.503Z,99236.13
2019-05-20T15:32:32.694Z,99223.51
2019-05-20T15:35:00.932Z,99214.72
2019-05-20T15:37:29.332Z,99219.54
2019-05-20T15:39:57.481Z,99222.98
2019-05-20T15:42:25.745Z,99226.28
2019-05-20T15:44:53.993Z,99221.76
2019-05-20T15:47:22.227Z,99213.39
2019-05-20T15:49:50.534Z,99202.34
2019-05-20T15:52:18.732Z,99217.84
2019-05-20T15:54:47.069Z,99225.91
2019-05-20T15:57:15.298Z,99242.73
2019-05-20T15:59:46.420Z,99240.19
2019-05-20T16:02:12.357Z,99234.06
2019-05-20T16:04:40.607Z,99212.55
2019-05-20T16:07:08.732Z,99198.91
2019-05-20T16:09:37.132Z,99192.14
2019-05-20T16:12:05.363Z,99186.70
2019-05-20T16:14:33.515Z,99183.19
2019-05-20T16:17:01.760Z,99190.67
2019-05-20T16:19:29.930Z,99188.58
2019-05-20T16:21:58.142Z,99190.33
2019-05-20T16:24:26.469Z,99194.17
2019-05-20T16:26:54.633Z,99198.83
2019-05-20T16:29:22.915Z,99200.68
2019-05-20T16:31:51.070Z,99205.03
2019-05-20T16:34:19.338Z,99197.96
2019-05-20T16:36:47.617Z,99194.50
2019-05-20T16:39:15.817Z,99181.33
2019-05-20T16:41:44.028Z,99190.00
2019-05-20T16:44:12.328Z,99186.05
2019-05-20T16:46:40.627Z,99199.93
2019-05-20T16:49:08.812Z,99197.48
2019-05-20T16:51:37.289Z,99192.44
2019-05-20T16:54:05.703Z,99192.16
2019-05-20T16:56:33.930Z,99198.33
2019-05-20T16:59:02.050Z,99200.55
2019-05-20T17:01:30.244Z,99199.04
2019-05-20T17:03:58.470Z,99208.22
2019-05-20T17:06:27.641Z,99198.02
2019-05-20T17:08:55.797Z,99205.27
2019-05-20T17:11:24.086Z,99214.78
2019-05-20T17:13:52.347Z,99218.54
2019-05-20T17:16:20.744Z,99224.81
2019-05-20T17:18:49.097Z,99228.68
2019-05-20T17:21:17.305Z,99227.22
2019-05-20T17:23:45.486Z,99226.60
2019-05-20T17:26:13.641Z,99218.80
2019-05-20T17:28:43.354Z,99221.56
2019-05-20T17:31:11.564Z,99210.98
2019-05-20T17:33:39.911Z,99235.20
2019-05-20T17:36:08.096Z,99246.50
2019-05-20T17:38:36.409Z,99213.14
2019-05-20T17:41:04.586Z,99211.58
2019-05-20T17:43:32.852Z,99210.02
2019-05-20T17:46:01.033Z,99211.50
2019-05-20T17:48:29.157Z,99218.19
2019-05-20T17:50:57.310Z,99228.53
2019-05-20T17:53:25.556Z,99242.31
2019-05-20T17:55:53.801Z,99244.13
2019-05-20T17:58:21.953Z,99235.39
2019-05-20T18:00:50.136Z,99224.94
2019-05-20T18:03:18.323Z,99224.94
2019-05-20T18:05:46.483Z,99228.59
2019-05-20T18:08:14.816Z,99272.80
2019-05-20T18:10:42.925Z,99292.06
2019-05-20T18:13:11.310Z,99303.54
2019-05-20T18:15:39.626Z,99262.89
2019-05-20T18:18:08.340Z,99242.33
2019-05-20T18:20:36.634Z,99235.73
2019-05-20T18:23:04.875Z,99218.43
2019-05-20T18:25:34.340Z,99218.10
2019-05-20T18:28:02.645Z,99250.77
2019-05-20T18:30:30.884Z,99287.38
2019-05-20T18:32:59.096Z,99287.38
2019-05-20T18:35:27.325Z,99276.80
2019-05-20T18:37:55.692Z,99265.36
2019-05-20T18:40:23.862Z,99247.12
2019-05-20T18:42:52.059Z,99237.84
2019-05-20T18:45:20.348Z,99238.44
2019-05-20T18:47:48.530Z,99228.17
2019-05-20T18:50:16.854Z,99239.84
2019-05-20T18:52:45.056Z,99235.42
2019-05-20T18:55:13.266Z,99238.08
2019-05-20T18:57:41.469Z,99246.62
2019-05-20T19:00:11.348Z,99244.25
2019-05-20T19:02:39.738Z,99244.84
2019-05-20T19:05:08.914Z,99240.81
2019-05-20T19:07:37.039Z,99243.48
2019-05-20T19:10:06.000Z,99218.95
2019-05-20T19:12:34.263Z,99213.89
2019-05-20T19:15:02.478Z,99212.39
2019-05-20T19:17:30.939Z,99207.53
2019-05-20T19:19:59.378Z,99217.08
2019-05-20T19:22:27.547Z,99226.99
2019-05-20T19:24:55.769Z,99237.38
2019-05-20T19:27:24.105Z,99240.73
2019-05-20T19:29:52.321Z,99253.09
2019-05-20T19:32:22.229Z,99253.28
2019-05-20T19:34:50.422Z,99253.25
2019-05-20T19:37:18.880Z,99253.74
2019-05-20T19:39:47.057Z,99249.97
2019-05-20T19:42:15.272Z,99268.86
2019-05-20T19:44:43.512Z,99275.64
2019-05-20T19:47:11.746Z,99274.78
2019-05-20T19:49:42.429Z,99276.51
2019-05-20T19:52:10.099Z,99267.77
2019-05-20T19:54:38.362Z,99266.91
2019-05-20T19:57:06.855Z,99257.44
2019-05-20T19:59:35.392Z,99257.53
2019-05-20T20:02:16.470Z,99258.86
2019-05-20T20:04:34.056Z,99266.09
2019-05-20T20:07:02.265Z,99257.08
2019-05-20T20:09:30.674Z,99252.41
2019-05-20T20:11:58.809Z,99256.20
2019-05-20T20:14:27.060Z,99262.59
2019-05-20T20:16:55.273Z,99249.09
2019-05-20T20:19:23.419Z,99229.30
2019-05-20T20:21:51.573Z,99252.28
2019-05-20T20:24:19.767Z,99244.39
2019-05-20T20:26:48.009Z,99224.37
2019-05-20T20:29:16.251Z,99203.48
2019-05-20T20:31:44.475Z,99218.59
2019-05-20T20:34:12.656Z,99218.11
2019-05-20T20:36:40.893Z,99240.97
2019-05-20T20:39:09.184Z,99240.23
2019-05-20T20:41:37.352Z,99248.09
2019-05-20T20:44:05.666Z,99231.64
2019-05-20T20:46:33.833Z,99225.13
2019-05-20T20:49:02.033Z,99229.52
2019-05-20T20:51:30.231Z,99232.08
2019-05-20T20:53:58.420Z,99226.80
2019-05-20T20:56:26.697Z,99222.91
2019-05-20T20:58:54.879Z,99227.62
2019-05-20T21:01:23.040Z,99230.53
2019-05-20T21:03:51.269Z,99224.58
2019-05-20T21:06:19.497Z,99219.46
2019-05-20T21:08:47.686Z,99234.21
2019-05-20T21:11:15.877Z,99227.59
2019-05-20T21:13:44.021Z,99232.75
2019-05-20T21:16:12.253Z,99231.73
2019-05-20T21:18:40.565Z,99236.05
2019-05-20T21:21:09.069Z,99217.98
2019-05-20T21:23:38.120Z,99222.68
2019-05-20T21:26:06.527Z,99222.30
2019-05-20T21:28:34.722Z,99233.58
2019-05-20T21:31:02.913Z,99229.88
2019-05-20T21:33:31.051Z,99239.36
2019-05-20T21:35:59.299Z,99224.39
2019-05-20T21:38:27.547Z,99233.45
2019-05-20T21:40:55.813Z,99233.84
2019-05-20T21:43:24.044Z,99231.89
2019-05-20T21:45:52.275Z,99229.42
2019-05-20T21:48:20.434Z,99234.70
2019-05-20T21:50:48.611Z,99231.14
2019-05-20T21:53:16.926Z,99236.19
2019-05-20T21:55:45.222Z,99235.55
2019-05-20T21:58:14.266Z,99234.81
2019-05-20T22:00:48.414Z,99235.80
2019-05-20T22:03:24.123Z,99226.96
2019-05-20T22:05:46.592Z,99241.05
2019-05-20T22:08:14.997Z,99243.14
2019-05-20T22:10:43.352Z,99239.08
2019-05-20T22:13:11.536Z,99239.08
2019-05-20T22:15:39.720Z,99236.55
2019-05-20T22:18:07.992Z,99230.05
2019-05-20T22:20:36.232Z,99225.95
2019-05-20T22:23:41.628Z,99232.05
2019-05-20T22:26:09.985Z,99225.94
2019-05-20T22:28:38.256Z,99225.94
2019-05-20T22:31:06.460Z,99232.50
2019-05-20T22:33:41.593Z,99226.20
2019-05-20T22:36:04.700Z,99223.05
2019-05-20T22:38:32.834Z,99236.19
2019-05-20T22:41:01.000Z,99228.67
2019-05-20T22:43:29.160Z,99228.67
2019-05-20T22:45:57.395Z,99226.19
2019-05-20T22:48:25.566Z,99219.20
2019-05-20T22:50:53.788Z,99211.02
2019-05-20T22:53:22.223Z,99215.09
2019-05-20T22:55:50.534Z,99212.41
2019-05-20T22:58:18.796Z,99206.30
2019-05-20T23:00:47.051Z,99209.33
2019-05-20T23:03:15.225Z,99220.72
2019-05-20T23:05:43.428Z,99215.56
2019-05-20T23:08:11.644Z,99205.20
2019-05-20T23:10:39.886Z,99195.26
2019-05-20T23:13:08.284Z,99203.69
2019-05-20T23:15:36.511Z,99206.44
2019-05-20T23:18:04.776Z,99219.21
2019-05-20T23:20:32.947Z,99214.63
2019-05-20T23:23:01.192Z,99199.58
2019-05-20T23:25:29.373Z,99206.80
2019-05-20T23:27:59.089Z,99183.41
2019-05-20T23:30:27.300Z,99182.88
2019-05-20T23:32:55.479Z,99177.11
2019-05-20T23:35:23.871Z,99174.61
2019-05-20T23:37:52.131Z,99169.13
2019-05-20T23:40:20.281Z,99181.94
2019-05-20T23:42:48.553Z,99197.94
2019-05-20T23:45:16.806Z,99203.27
2019-05-20T23:47:44.967Z,99198.81
2019-05-20T23:50:13.479Z,99199.89
2019-05-20T23:52:41.641Z,99201.13
2019-05-20T23:55:10.208Z,99210.38
2019-05-20T23:57:38.397Z,99207.92
